Time;durP1;ratioP1;P1;durP2;ratioP2;P2;SDS_P1;SDS_P2;PMS_P1;PMS_P2;Temp;Humidity;BMP_temperature;BMP_pressure;BME280_temperature;BME280_humidity;BME280_pressure;Samples;Min_cycle;Max_cycle;Signal;HPM_P1;HPM_P2
2023/08/07 00:00:52;;;;;;;0.40;0.40;;;15.00;99.90;;;;;;4417327;32;20114;-76
2023/08/07 00:03:18;;;;;;;0.40;0.40;;;14.90;99.90;;;;;;4431775;32;20050;-76
2023/08/07 00:05:46;;;;;;;0.20;0.20;;;15.00;99.90;;;;;;4432349;32;20050;-76
2023/08/07 00:08:11;;;;;;;0.30;0.30;;;14.90;99.90;;;;;;4432475;32;20196;-76
2023/08/07 00:10:37;;;;;;;0.20;0.20;;;14.90;99.90;;;;;;4431699;32;20078;-76
2023/08/07 00:13:03;;;;;;;0.62;0.52;;;14.90;99.90;;;;;;4431966;32;20058;-76
2023/08/07 00:15:29;;;;;;;0.47;0.47;;;14.90;99.90;;;;;;4432034;32;20057;-76
2023/08/07 00:17:54;;;;;;;0.30;0.30;;;14.80;99.90;;;;;;4431543;32;20070;-76
2023/08/07 00:20:20;;;;;;;0.30;0.30;;;14.90;99.90;;;;;;4431977;32;20058;-76
2023/08/07 00:22:45;;;;;;;3.12;0.68;;;14.90;99.90;;;;;;4431681;32;20093;-76
2023/08/07 00:25:11;;;;;;;0.82;0.82;;;14.90;99.90;;;;;;4432073;32;20027;-76
2023/08/07 00:27:36;;;;;;;24.23;0.60;;;14.90;99.90;;;;;;4431639;32;20069;-76
2023/08/07 00:30:02;;;;;;;0.47;0.47;;;15.00;99.90;;;;;;4431915;32;20026;-76
2023/08/07 00:32:28;;;;;;;0.30;0.30;;;14.90;99.90;;;;;;4431383;32;20057;-76
2023/08/07 00:34:53;;;;;;;3.30;0.50;;;14.90;99.90;;;;;;4431682;32;20057;-76
2023/08/07 00:37:19;;;;;;;0.20;0.20;;;14.90;99.90;;;;;;4431617;32;20058;-76
2023/08/07 00:39:44;;;;;;;0.30;0.30;;;14.90;99.90;;;;;;4431847;32;20050;-76
2023/08/07 00:42:09;;;;;;;0.47;0.47;;;14.90;99.90;;;;;;4431564;32;20075;-76
2023/08/07 00:44:35;;;;;;;0.40;0.40;;;14.90;99.90;;;;;;4431864;32;20094;-76
2023/08/07 00:47:00;;;;;;;0.40;0.40;;;14.90;99.90;;;;;;4431252;32;20093;-75
2023/08/07 00:49:27;;;;;;;9.18;1.70;;;14.90;99.90;;;;;;4431537;32;20065;-76
2023/08/07 00:51:52;;;;;;;0.37;0.37;;;14.90;99.90;;;;;;4431729;32;20034;-77
2023/08/07 00:54:19;;;;;;;0.35;0.35;;;14.90;99.90;;;;;;4431316;32;20078;-76
2023/08/07 00:56:45;;;;;;;0.40;0.40;;;14.90;99.90;;;;;;4431062;32;20050;-75
2023/08/07 00:59:12;;;;;;;0.40;0.40;;;14.90;99.90;;;;;;4430823;32;20046;-76
2023/08/07 01:01:37;;;;;;;0.68;0.68;;;15.00;99.90;;;;;;4431088;32;20053;-76
2023/08/07 01:04:03;;;;;;;0.60;0.60;;;14.90;99.90;;;;;;4431602;32;20085;-76
2023/08/07 01:06:29;;;;;;;0.65;0.60;;;14.90;99.90;;;;;;4430704;32;20053;-76
2023/08/07 01:08:54;;;;;;;0.30;0.30;;;14.90;99.90;;;;;;4427506;32;20088;-76
2023/08/07 01:11:45;;;;;;;0.37;0.37;;;14.90;99.90;;;;;;4430519;32;20090;-76
2023/08/07 01:14:44;;;;;;;4.20;0.90;;;14.90;99.90;;;;;;4421163;32;20049;-76
2023/08/07 01:17:14;;;;;;;0.45;0.45;;;15.00;99.90;;;;;;4421364;32;20042;-76
2023/08/07 01:19:40;;;;;;;0.20;0.20;;;15.00;99.90;;;;;;4431122;32;20065;-76
2023/08/07 01:22:10;;;;;;;0.30;0.30;;;15.00;99.90;;;;;;4430244;32;20038;-76
2023/08/07 01:24:36;;;;;;;0.30;0.30;;;15.00;99.90;;;;;;4425806;32;20074;-76
2023/08/07 01:27:19;;;;;;;0.30;0.30;;;15.00;99.90;;;;;;4430973;32;20103;-76
2023/08/07 01:30:09;;;;;;;0.30;0.30;;;15.00;99.90;;;;;;4431084;32;20042;-76
2023/08/07 01:33:03;;;;;;;0.57;0.40;;;15.10;99.90;;;;;;4428623;32;20268;-75
2023/08/07 01:35:34;;;;;;;1.27;1.10;;;15.10;99.90;;;;;;4416369;32;20046;-76
2023/08/07 01:38:01;;;;;;;1.90;0.55;;;15.00;99.90;;;;;;4431332;32;20062;-76
2023/08/07 01:40:28;;;;;;;2.15;1.08;;;15.00;99.90;;;;;;4429544;32;20050;-75
2023/08/07 01:42:54;;;;;;;0.68;0.45;;;15.00;99.90;;;;;;4429659;32;20054;-75
2023/08/07 01:45:24;;;;;;;0.50;0.50;;;15.10;99.90;;;;;;4425531;32;20069;-76
2023/08/07 01:47:49;;;;;;;0.30;0.30;;;15.10;99.90;;;;;;4422251;32;20054;-75
2023/08/07 01:50:15;;;;;;;0.55;0.52;;;15.00;99.90;;;;;;4430755;32;20065;-76
2023/08/07 01:52:40;;;;;;;0.57;0.57;;;15.00;99.90;;;;;;4428697;32;20117;-77
2023/08/07 01:55:06;;;;;;;0.75;0.75;;;15.00;99.90;;;;;;4445332;26;20078;-77
2023/08/07 01:57:32;;;;;;;0.47;0.47;;;14.90;99.90;;;;;;4412847;32;20062;-78
2023/08/07 01:59:57;;;;;;;0.30;0.30;;;15.00;99.90;;;;;;4412594;32;20070;-77
2023/08/07 02:02:23;;;;;;;1.48;0.60;;;15.00;99.90;;;;;;4411020;32;20129;-77
2023/08/07 02:04:49;;;;;;;27.37;0.62;;;15.00;99.90;;;;;;4413173;32;20119;-78
2023/08/07 02:07:14;;;;;;;0.30;0.30;;;15.00;99.90;;;;;;4414736;32;20077;-78
2023/08/07 02:09:39;;;;;;;0.32;0.32;;;15.00;99.90;;;;;;4414774;32;20069;-78
2023/08/07 02:12:06;;;;;;;0.50;0.50;;;15.00;99.90;;;;;;4415458;32;20117;-78
2023/08/07 02:14:31;;;;;;;0.30;0.30;;;14.90;99.90;;;;;;4415478;32;20062;-78
2023/08/07 02:16:56;;;;;;;0.50;0.50;;;14.90;99.90;;;;;;4416797;32;20073;-78
2023/08/07 02:19:22;;;;;;;0.50;0.50;;;14.90;99.90;;;;;;4416807;32;20116;-79
2023/08/07 02:21:47;;;;;;;0.37;0.37;;;14.90;99.90;;;;;;4415044;32;20074;-77
2023/08/07 02:24:13;;;;;;;0.70;0.70;;;14.80;99.90;;;;;;4415417;32;20066;-78
2023/08/07 02:26:39;;;;;;;0.37;0.37;;;14.80;99.90;;;;;;4415457;32;20115;-78
2023/08/07 02:29:06;;;;;;;0.40;0.40;;;14.80;99.90;;;;;;4415767;32;20082;-78
2023/08/07 02:31:31;;;;;;;0.50;0.50;;;14.90;99.90;;;;;;4414675;32;20498;-78
2023/08/07 02:33:57;;;;;;;0.57;0.57;;;14.90;99.90;;;;;;4414931;32;20062;-78
2023/08/07 02:36:22;;;;;;;0.62;0.60;;;14.80;99.90;;;;;;4414730;32;20069;-78
2023/08/07 02:38:48;;;;;;;0.40;0.40;;;14.90;99.90;;;;;;4415183;32;20078;-78
2023/08/07 02:41:13;;;;;;;0.40;0.40;;;14.90;99.90;;;;;;4416330;32;20078;-78
2023/08/07 02:43:39;;;;;;;0.30;0.30;;;14.90;99.90;;;;;;4415592;32;20066;-78
2023/08/07 02:46:04;;;;;;;1.10;0.75;;;14.80;99.90;;;;;;4416413;32;20061;-78
2023/08/07 02:48:30;;;;;;;0.40;0.40;;;14.80;99.90;;;;;;4414606;32;20502;-78
2023/08/07 02:50:55;;;;;;;0.20;0.20;;;14.80;99.90;;;;;;4415591;32;20071;-78
2023/08/07 02:53:21;;;;;;;0.30;0.30;;;14.90;99.90;;;;;;4414274;32;20077;-78
2023/08/07 02:55:46;;;;;;;1.25;1.02;;;14.90;99.90;;;;;;4415623;32;20069;-78
2023/08/07 02:58:12;;;;;;;0.40;0.40;;;15.00;99.90;;;;;;4415829;32;20396;-78
2023/08/07 03:00:37;;;;;;;0.40;0.40;;;15.00;99.90;;;;;;4414969;32;20062;-78
2023/08/07 03:03:02;;;;;;;0.37;0.37;;;15.10;99.90;;;;;;4414188;32;20077;-78
2023/08/07 03:05:28;;;;;;;0.22;0.22;;;15.10;99.90;;;;;;4414948;32;20069;-78
2023/08/07 03:07:54;;;;;;;0.52;0.52;;;15.20;99.90;;;;;;4415060;32;20066;-78
2023/08/07 03:10:19;;;;;;;0.93;0.75;;;15.10;99.90;;;;;;4414701;32;20085;-78
2023/08/07 03:12:45;;;;;;;0.22;0.22;;;15.10;99.90;;;;;;4412554;32;20062;-78
2023/08/07 03:15:10;;;;;;;0.47;0.47;;;15.10;99.90;;;;;;4413629;32;20070;-78
2023/08/07 03:17:36;;;;;;;2.37;1.05;;;15.10;99.90;;;;;;4415224;32;20073;-78
2023/08/07 03:20:03;;;;;;;0.40;0.40;;;15.10;99.90;;;;;;4414949;32;20089;-78
2023/08/07 03:22:29;;;;;;;1.85;0.85;;;15.10;99.90;;;;;;4414827;32;20058;-78
2023/08/07 03:24:54;;;;;;;0.50;0.50;;;15.10;99.90;;;;;;4415102;32;20128;-78
2023/08/07 03:27:20;;;;;;;0.82;0.60;;;15.10;99.90;;;;;;4415059;32;20502;-78
2023/08/07 03:29:45;;;;;;;0.52;0.43;;;15.10;99.90;;;;;;4415884;32;20082;-79
2023/08/07 03:32:10;;;;;;;0.70;0.70;;;15.10;99.90;;;;;;4411487;32;20585;-78
2023/08/07 03:34:36;;;;;;;0.40;0.40;;;15.10;99.90;;;;;;4415397;32;20066;-78
2023/08/07 03:37:02;;;;;;;0.57;0.57;;;15.10;99.90;;;;;;4415907;32;20038;-78
2023/08/07 03:39:27;;;;;;;0.50;0.50;;;15.10;99.90;;;;;;4415417;32;20133;-77
2023/08/07 03:41:52;;;;;;;0.40;0.40;;;15.10;99.90;;;;;;4414857;32;20098;-78
2023/08/07 03:44:18;;;;;;;0.80;0.80;;;15.20;99.90;;;;;;4414332;32;20411;-78
2023/08/07 03:46:43;;;;;;;0.40;0.40;;;15.20;99.90;;;;;;4415623;32;20078;-78
2023/08/07 03:49:09;;;;;;;0.93;0.85;;;15.30;99.90;;;;;;4415292;32;20086;-78
2023/08/07 03:51:34;;;;;;;1.85;0.70;;;15.20;99.90;;;;;;4414430;32;20526;-78
2023/08/07 03:54:00;;;;;;;0.35;0.35;;;15.20;99.90;;;;;;4414240;32;20536;-78
2023/08/07 03:56:26;;;;;;;1.80;0.80;;;15.20;99.90;;;;;;4414085;32;20607;-78
2023/08/07 03:58:51;;;;;;;0.50;0.50;;;15.20;99.90;;;;;;4414532;32;20086;-78
2023/08/07 04:01:17;;;;;;;1.65;0.73;;;15.20;99.90;;;;;;4414465;32;20121;-78
2023/08/07 04:03:42;;;;;;;0.95;0.52;;;15.20;99.90;;;;;;4414266;32;20073;-78
2023/08/07 04:06:08;;;;;;;0.68;0.68;;;15.20;99.90;;;;;;4415145;32;20058;-78
2023/08/07 04:08:33;;;;;;;0.45;0.45;;;15.30;99.90;;;;;;4414778;32;20061;-77
2023/08/07 04:11:01;;;;;;;0.37;0.37;;;15.30;99.90;;;;;;4416188;32;20082;-78
2023/08/07 04:13:28;;;;;;;1.50;0.80;;;15.30;99.90;;;;;;4408772;32;20120;-78
2023/08/07 04:15:53;;;;;;;1.05;0.60;;;15.30;99.90;;;;;;4416001;32;20074;-78
2023/08/07 04:18:19;;;;;;;0.40;0.40;;;15.20;99.90;;;;;;4416484;32;20387;-78
2023/08/07 04:21:00;;;;;;;0.40;0.40;;;15.20;99.90;;;;;;4416036;32;20054;-78
2023/08/07 04:23:25;;;;;;;0.90;0.77;;;15.20;99.90;;;;;;4414097;32;20155;-78
2023/08/07 04:25:52;;;;;;;0.50;0.50;;;15.10;99.90;;;;;;4416900;32;20509;-78
2023/08/07 04:28:18;;;;;;;1.20;0.37;;;15.10;99.90;;;;;;4415403;32;20116;-78
2023/08/07 04:30:45;;;;;;;0.43;0.43;;;15.20;99.90;;;;;;4415471;32;20133;-78
2023/08/07 04:33:11;;;;;;;0.60;0.60;;;15.10;99.90;;;;;;4416262;32;20053;-79
2023/08/07 04:35:36;;;;;;;0.40;0.40;;;15.10;99.90;;;;;;4416987;32;20125;-79
2023/08/07 04:38:02;;;;;;;0.30;0.30;;;15.10;99.90;;;;;;4415347;32;20529;-78
2023/08/07 04:40:29;;;;;;;1.00;0.95;;;15.10;99.90;;;;;;4416986;32;20161;-78
2023/08/07 04:42:54;;;;;;;0.30;0.30;;;15.00;99.90;;;;;;4412670;32;20070;-78
2023/08/07 04:45:20;;;;;;;0.40;0.40;;;15.10;99.90;;;;;;4415955;32;20676;-79
2023/08/07 04:47:45;;;;;;;0.45;0.45;;;15.10;99.90;;;;;;4414883;32;20066;-78
2023/08/07 04:50:11;;;;;;;0.40;0.40;;;15.10;99.90;;;;;;4417680;32;20094;-78
2023/08/07 04:52:36;;;;;;;0.55;0.55;;;15.10;99.90;;;;;;4411390;32;20073;-78
2023/08/07 04:55:02;;;;;;;0.50;0.50;;;15.10;99.90;;;;;;4416909;32;20074;-77
2023/08/07 04:57:27;;;;;;;0.35;0.35;;;15.00;99.90;;;;;;4416044;32;20402;-78
2023/08/07 04:59:53;;;;;;;0.40;0.40;;;15.00;99.90;;;;;;4414742;32;20522;-78
2023/08/07 05:02:19;;;;;;;0.35;0.35;;;15.00;99.90;;;;;;4410945;32;20073;-78
2023/08/07 05:04:45;;;;;;;0.40;0.40;;;15.00;99.90;;;;;;4416276;32;20078;-78
2023/08/07 05:07:11;;;;;;;0.30;0.30;;;15.00;99.90;;;;;;4417744;32;20066;-78
2023/08/07 05:09:36;;;;;;;0.45;0.45;;;15.00;99.90;;;;;;4420959;32;20070;-78
2023/08/07 05:12:02;;;;;;;1.70;0.60;;;15.00;99.90;;;;;;4417225;32;20589;-78
2023/08/07 05:14:29;;;;;;;1.92;0.93;;;15.00;99.90;;;;;;4418517;32;20077;-78
2023/08/07 05:16:55;;;;;;;0.60;0.60;;;15.00;99.90;;;;;;4419620;32;20087;-78
2023/08/07 05:19:20;;;;;;;0.62;0.40;;;15.00;99.90;;;;;;4420132;32;20090;-78
2023/08/07 05:21:49;;;;;;;0.60;0.60;;;15.00;99.90;;;;;;4423851;32;20061;-78
2023/08/07 05:24:15;;;;;;;0.32;0.32;;;15.00;99.90;;;;;;4421390;32;20073;-79
2023/08/07 05:26:41;;;;;;;0.37;0.37;;;15.00;99.90;;;;;;4422718;32;20065;-78
2023/08/07 05:29:07;;;;;;;0.40;0.40;;;15.00;99.90;;;;;;4419633;32;20114;-78
2023/08/07 05:31:33;;;;;;;6.10;2.67;;;15.00;99.90;;;;;;4408280;32;20086;-78
2023/08/07 05:33:58;;;;;;;0.60;0.60;;;15.00;99.90;;;;;;4419777;32;20078;-78
2023/08/07 05:36:24;;;;;;;0.70;0.70;;;15.00;99.90;;;;;;4424061;32;20026;-79
2023/08/07 05:38:49;;;;;;;0.50;0.50;;;15.00;99.90;;;;;;4425882;32;20125;-78
2023/08/07 05:41:16;;;;;;;0.40;0.40;;;15.00;99.90;;;;;;4426744;32;20667;-79
2023/08/07 05:43:41;;;;;;;0.55;0.50;;;15.00;99.90;;;;;;4425336;32;20135;-78
2023/08/07 05:46:07;;;;;;;0.40;0.40;;;15.10;99.90;;;;;;4428359;32;20100;-79
2023/08/07 05:48:32;;;;;;;1.23;0.75;;;15.10;99.90;;;;;;4427997;32;20103;-79
2023/08/07 05:50:58;;;;;;;0.82;0.80;;;15.10;99.90;;;;;;4428319;32;20069;-80
2023/08/07 05:53:23;;;;;;;0.25;0.25;;;15.10;99.90;;;;;;4422985;32;20066;-78
2023/08/07 05:55:49;;;;;;;1.37;0.50;;;15.20;99.90;;;;;;4427353;32;20062;-78
2023/08/07 05:58:14;;;;;;;0.30;0.30;;;15.10;99.90;;;;;;4422710;32;20129;-79
2023/08/07 06:00:40;;;;;;;0.88;0.35;;;15.20;99.90;;;;;;4420554;32;20123;-78
2023/08/07 06:03:05;;;;;;;0.30;0.30;;;15.20;99.90;;;;;;4422253;32;20078;-79
2023/08/07 06:05:31;;;;;;;0.40;0.40;;;15.30;99.90;;;;;;4423894;32;20058;-78
2023/08/07 06:07:56;;;;;;;0.37;0.37;;;15.30;99.90;;;;;;4421452;32;20086;-79
2023/08/07 06:10:22;;;;;;;3.67;0.55;;;15.40;99.90;;;;;;4423550;32;20066;-79
2023/08/07 06:12:47;;;;;;;0.47;0.47;;;15.40;99.90;;;;;;4423064;32;20078;-78
2023/08/07 06:15:13;;;;;;;0.73;0.73;;;15.50;99.90;;;;;;4419927;32;20057;-78
2023/08/07 06:17:39;;;;;;;0.40;0.40;;;15.60;99.90;;;;;;4421840;32;20046;-79
2023/08/07 06:20:07;;;;;;;0.30;0.30;;;15.70;99.90;;;;;;4423889;32;20065;-78
2023/08/07 06:22:32;;;;;;;0.55;0.47;;;15.70;99.90;;;;;;4425336;32;20081;-78
2023/08/07 06:24:58;;;;;;;0.43;0.43;;;15.80;99.90;;;;;;4423487;32;20082;-78
2023/08/07 06:27:23;;;;;;;0.30;0.30;;;15.90;99.90;;;;;;4424425;32;20073;-79
2023/08/07 06:29:49;;;;;;;0.30;0.30;;;15.90;99.90;;;;;;4425564;32;20080;-78
2023/08/07 06:32:14;;;;;;;0.40;0.40;;;15.90;99.90;;;;;;4427190;32;20069;-77
2023/08/07 06:34:39;;;;;;;0.88;0.75;;;15.90;99.90;;;;;;4413997;32;20526;-78
2023/08/07 06:37:05;;;;;;;0.40;0.40;;;15.90;99.90;;;;;;4412197;32;20062;-78
2023/08/07 06:39:31;;;;;;;0.40;0.40;;;16.00;99.90;;;;;;4413178;32;20047;-78
2023/08/07 06:41:56;;;;;;;1.08;0.75;;;16.10;99.90;;;;;;4414856;32;20078;-78
2023/08/07 06:44:22;;;;;;;0.35;0.30;;;16.20;99.90;;;;;;4425901;32;20062;-79
2023/08/07 06:46:47;;;;;;;0.30;0.30;;;16.30;99.90;;;;;;4427959;32;20081;-78
2023/08/07 06:49:13;;;;;;;1.98;0.62;;;16.40;99.90;;;;;;4428019;27;20120;-75
2023/08/07 06:51:38;;;;;;;0.40;0.40;;;16.50;99.90;;;;;;4406292;32;20074;-76
2023/08/07 06:54:04;;;;;;;0.40;0.40;;;16.50;99.90;;;;;;4402693;32;20066;-77
2023/08/07 06:56:29;;;;;;;0.40;0.40;;;16.50;99.90;;;;;;4403530;32;20070;-76
2023/08/07 06:58:55;;;;;;;0.65;0.60;;;16.50;99.90;;;;;;4401563;32;20094;-76
2023/08/07 07:01:20;;;;;;;0.45;0.45;;;16.60;99.90;;;;;;4405379;32;20074;-76
2023/08/07 07:03:46;;;;;;;1.00;0.40;;;16.60;99.90;;;;;;4405126;32;20058;-76
2023/08/07 07:06:13;;;;;;;0.30;0.30;;;16.80;99.90;;;;;;4406517;32;20097;-76
2023/08/07 07:08:38;;;;;;;0.40;0.40;;;16.70;99.90;;;;;;4421733;32;20428;-76
2023/08/07 07:11:04;;;;;;;0.30;0.30;;;16.70;99.90;;;;;;4418285;32;20120;-77
2023/08/07 07:13:30;;;;;;;0.40;0.40;;;16.80;99.90;;;;;;4410559;32;20083;-77
2023/08/07 07:15:55;;;;;;;0.98;0.80;;;16.80;99.90;;;;;;4405832;32;20066;-76
2023/08/07 07:18:21;;;;;;;0.47;0.47;;;16.90;99.90;;;;;;4404746;32;20102;-77
2023/08/07 07:20:46;;;;;;;0.30;0.30;;;16.80;99.90;;;;;;4405030;32;20141;-76
2023/08/07 07:23:12;;;;;;;0.55;0.52;;;16.90;99.90;;;;;;4405743;32;20073;-76
2023/08/07 07:25:37;;;;;;;0.40;0.40;;;17.00;99.90;;;;;;4406028;32;20087;-76
2023/08/07 07:28:03;;;;;;;1.05;0.62;;;17.00;99.90;;;;;;4403013;32;20073;-77
2023/08/07 07:30:28;;;;;;;0.50;0.50;;;17.00;99.90;;;;;;4403488;32;20129;-77
2023/08/07 07:32:54;;;;;;;0.40;0.40;;;17.00;99.90;;;;;;4405569;32;20090;-75
2023/08/07 07:35:19;;;;;;;0.47;0.47;;;17.10;99.90;;;;;;4402854;32;20067;-77
2023/08/07 07:37:45;;;;;;;0.32;0.32;;;17.10;99.90;;;;;;4403625;32;20057;-76
2023/08/07 07:40:10;;;;;;;0.50;0.50;;;17.10;99.90;;;;;;4402936;32;20125;-76
2023/08/07 07:42:36;;;;;;;0.30;0.30;;;17.10;99.90;;;;;;4402848;32;20062;-77
2023/08/07 07:45:02;;;;;;;0.40;0.40;;;17.10;99.90;;;;;;4405206;32;20235;-76
2023/08/07 07:47:27;;;;;;;0.22;0.22;;;17.10;99.90;;;;;;4403569;32;20204;-77
2023/08/07 07:50:07;;;;;;;0.50;0.50;;;17.10;99.90;;;;;;4403900;32;20078;-76
2023/08/07 07:52:32;;;;;;;0.40;0.40;;;17.10;99.90;;;;;;4397766;32;20484;-76
2023/08/07 07:54:58;;;;;;;0.40;0.40;;;17.10;99.90;;;;;;4386517;32;20062;-77
2023/08/07 07:57:24;;;;;;;0.30;0.30;;;17.20;99.90;;;;;;4388454;32;20837;-76
2023/08/07 07:59:50;;;;;;;0.40;0.40;;;17.30;99.90;;;;;;4393660;32;20086;-77
2023/08/07 08:02:17;;;;;;;0.30;0.30;;;17.30;99.90;;;;;;4402849;32;20054;-76
2023/08/07 08:04:42;;;;;;;0.30;0.30;;;17.40;99.90;;;;;;4409721;32;20147;-76
2023/08/07 08:07:08;;;;;;;0.50;0.50;;;17.50;99.90;;;;;;4417625;32;20061;-77
2023/08/07 08:09:34;;;;;;;0.40;0.40;;;17.60;99.90;;;;;;4420077;32;20090;-76
2023/08/07 08:11:59;;;;;;;0.30;0.30;;;17.60;99.90;;;;;;4411813;32;20070;-76
2023/08/07 08:14:25;;;;;;;0.40;0.40;;;17.50;99.90;;;;;;4404264;32;20059;-77
2023/08/07 08:16:50;;;;;;;2.75;1.48;;;17.50;99.90;;;;;;4403790;32;20609;-77
2023/08/07 08:19:16;;;;;;;0.95;0.40;;;17.40;99.90;;;;;;4400511;32;20133;-77
2023/08/07 08:21:42;;;;;;;0.30;0.30;;;17.30;99.90;;;;;;4392020;32;20090;-76
2023/08/07 08:24:07;;;;;;;7.22;0.65;;;17.30;99.90;;;;;;4405914;32;20117;-75
2023/08/07 08:26:33;;;;;;;0.30;0.30;;;17.30;99.90;;;;;;4402638;32;20117;-76
2023/08/07 08:28:58;;;;;;;0.45;0.45;;;17.30;99.90;;;;;;4399949;32;20066;-75
2023/08/07 08:31:24;;;;;;;0.70;0.40;;;17.40;99.90;;;;;;4397069;32;20495;-76
2023/08/07 08:33:49;;;;;;;0.47;0.47;;;17.40;99.90;;;;;;4397453;32;20129;-76
2023/08/07 08:36:15;;;;;;;0.28;0.28;;;17.60;99.90;;;;;;4398369;32;20065;-77
2023/08/07 08:38:40;;;;;;;0.30;0.30;;;17.60;99.90;;;;;;4400505;32;20066;-77
2023/08/07 08:41:08;;;;;;;0.30;0.30;;;17.70;99.90;;;;;;4399442;32;20514;-76
2023/08/07 08:43:36;;;;;;;0.32;0.32;;;17.60;99.90;;;;;;4400789;32;20502;-76
2023/08/07 08:46:03;;;;;;;0.30;0.30;;;17.50;99.90;;;;;;4390334;32;20098;-77
2023/08/07 08:48:32;;;;;;;3.62;1.05;;;17.40;99.90;;;;;;4386095;32;20083;-76
2023/08/07 08:50:58;;;;;;;0.62;0.62;;;17.40;99.90;;;;;;4391300;32;20125;-76
2023/08/07 08:53:25;;;;;;;0.20;0.20;;;17.30;99.90;;;;;;4395621;32;20062;-77
2023/08/07 08:55:51;;;;;;;0.85;0.77;;;17.40;99.90;;;;;;4392212;32;20062;-77
2023/08/07 08:58:17;;;;;;;0.30;0.30;;;17.60;99.90;;;;;;4387809;32;20082;-76
2023/08/07 09:00:42;;;;;;;0.30;0.30;;;17.80;99.90;;;;;;4388123;32;20078;-75
2023/08/07 09:03:08;;;;;;;0.30;0.30;;;18.10;99.90;;;;;;4401730;32;20133;-75
2023/08/07 09:05:36;;;;;;;0.55;0.52;;;18.20;99.90;;;;;;4399785;32;20087;-78
2023/08/07 09:08:02;;;;;;;0.30;0.30;;;18.00;99.90;;;;;;4418007;32;20086;-77
2023/08/07 09:10:29;;;;;;;0.40;0.40;;;17.90;99.90;;;;;;4406493;32;20570;-76
2023/08/07 09:13:05;;;;;;;0.30;0.30;;;17.80;99.90;;;;;;4396514;32;20078;-77
2023/08/07 09:15:32;;;;;;;1.12;0.45;;;17.70;99.90;;;;;;4398706;32;20604;-77
2023/08/07 09:17:59;;;;;;;0.32;0.32;;;17.30;99.90;;;;;;4403900;32;20129;-77
2023/08/07 09:20:25;;;;;;;0.60;0.60;;;16.80;99.90;;;;;;4393654;32;20074;-76
2023/08/07 09:22:51;;;;;;;0.32;0.32;;;16.70;99.90;;;;;;4384305;32;20467;-77
2023/08/07 09:25:28;;;;;;;3.60;0.60;;;16.60;99.90;;;;;;4383643;32;20065;-77
2023/08/07 09:27:55;;;;;;;0.30;0.30;;;16.80;99.90;;;;;;4383109;32;20083;-77
2023/08/07 09:30:21;;;;;;;1.48;0.60;;;16.90;99.90;;;;;;4390279;32;20079;-76
2023/08/07 09:32:47;;;;;;;0.40;0.40;;;17.00;99.90;;;;;;4398969;32;20087;-77
2023/08/07 09:35:13;;;;;;;0.65;0.65;;;17.10;99.90;;;;;;4400052;32;20435;-77
2023/08/07 09:37:38;;;;;;;0.40;0.40;;;17.20;99.90;;;;;;4399129;32;20121;-77
2023/08/07 09:40:04;;;;;;;2.00;0.40;;;17.30;99.90;;;;;;4395964;32;20104;-77
2023/08/07 09:42:32;;;;;;;0.40;0.40;;;17.20;99.90;;;;;;4392849;32;20070;-77
2023/08/07 09:44:59;;;;;;;1.35;0.68;;;17.30;99.90;;;;;;4399877;32;20065;-78
2023/08/07 09:47:25;;;;;;;3.10;1.65;;;17.40;99.90;;;;;;4399089;32;20066;-77
2023/08/07 09:49:54;;;;;;;0.30;0.30;;;17.40;99.90;;;;;;4388514;32;20075;-77
2023/08/07 09:52:20;;;;;;;0.30;0.30;;;17.40;99.90;;;;;;4392614;32;20065;-77
2023/08/07 09:54:45;;;;;;;0.88;0.40;;;17.40;99.90;;;;;;4401670;32;20494;-77
2023/08/07 09:57:11;;;;;;;0.30;0.30;;;17.50;99.90;;;;;;4403072;32;20066;-76
2023/08/07 09:59:36;;;;;;;0.30;0.30;;;17.60;99.90;;;;;;4400528;32;20074;-77
2023/08/07 10:02:03;;;;;;;1.23;0.77;;;17.60;99.90;;;;;;4399123;32;20083;-77
2023/08/07 10:04:29;;;;;;;0.30;0.30;;;17.70;99.90;;;;;;4388182;32;20046;-77
2023/08/07 10:06:56;;;;;;;0.88;0.88;;;17.80;99.90;;;;;;4400346;32;20584;-77
2023/08/07 10:09:21;;;;;;;0.30;0.30;;;17.80;99.90;;;;;;4416750;32;20108;-76
2023/08/07 10:11:49;;;;;;;0.20;0.20;;;17.80;99.90;;;;;;4409526;32;20074;-77
2023/08/07 10:14:15;;;;;;;0.57;0.52;;;17.80;99.90;;;;;;4384110;32;20547;-77
2023/08/07 10:16:41;;;;;;;0.30;0.30;;;17.90;99.90;;;;;;4383719;32;20095;-75
2023/08/07 10:19:08;;;;;;;0.20;0.20;;;18.00;99.90;;;;;;4382784;32;20518;-76
2023/08/07 10:21:36;;;;;;;0.62;0.57;;;18.00;99.90;;;;;;4382794;32;20078;-77
2023/08/07 10:24:04;;;;;;;0.30;0.30;;;18.10;99.90;;;;;;4384114;32;20066;-77
2023/08/07 10:26:32;;;;;;;0.57;0.50;;;18.10;99.90;;;;;;4385967;32;20539;-78
2023/08/07 10:29:00;;;;;;;1.17;0.90;;;18.10;99.90;;;;;;4393681;32;20113;-76
2023/08/07 10:31:26;;;;;;;0.52;0.43;;;18.20;99.90;;;;;;4400859;32;20092;-77
2023/08/07 10:33:52;;;;;;;0.25;0.25;;;18.20;99.90;;;;;;4401120;32;20169;-77
2023/08/07 10:36:18;;;;;;;0.20;0.20;;;18.30;99.90;;;;;;4401261;32;20081;-76
2023/08/07 10:38:44;;;;;;;0.30;0.30;;;18.30;99.90;;;;;;4400537;32;20526;-76
2023/08/07 10:41:12;;;;;;;0.30;0.30;;;18.30;99.90;;;;;;4402285;32;20133;-76
2023/08/07 10:43:40;;;;;;;0.30;0.30;;;18.40;99.90;;;;;;4402043;32;20070;-77
2023/08/07 10:46:09;;;;;;;0.30;0.30;;;18.40;99.90;;;;;;4401553;32;20066;-78
2023/08/07 10:48:43;;;;;;;0.40;0.40;;;18.30;99.90;;;;;;4399501;32;20070;-76
2023/08/07 10:51:12;;;;;;;0.85;0.40;;;18.30;99.90;;;;;;4401894;32;20074;-76
2023/08/07 10:53:45;;;;;;;0.47;0.40;;;18.40;99.90;;;;;;4400901;32;20133;-77
2023/08/07 10:56:17;;;;;;;0.43;0.37;;;18.40;99.90;;;;;;4401781;32;20079;-77
2023/08/07 10:58:47;;;;;;;0.30;0.30;;;18.50;99.90;;;;;;4402096;32;20120;-76
2023/08/07 11:01:36;;;;;;;0.30;0.30;;;18.40;99.90;;;;;;4401008;32;20074;-76
2023/08/07 11:04:11;;;;;;;0.40;0.40;;;18.40;99.90;;;;;;4376864;32;20082;-76
2023/08/07 11:06:38;;;;;;;0.40;0.40;;;18.20;99.90;;;;;;4397974;32;20083;-77
2023/08/07 11:09:05;;;;;;;0.30;0.30;;;18.20;99.90;;;;;;4415838;32;20082;-77
2023/08/07 11:11:42;;;;;;;0.73;0.73;;;18.20;99.90;;;;;;4402254;32;20066;-77
2023/08/07 11:14:10;;;;;;;0.40;0.40;;;18.20;99.90;;;;;;4399480;32;20079;-76
2023/08/07 11:16:36;;;;;;;0.45;0.45;;;18.30;99.90;;;;;;4400264;32;20066;-77
2023/08/07 11:19:02;;;;;;;0.30;0.30;;;18.40;99.90;;;;;;4400303;32;20070;-77
2023/08/07 11:21:30;;;;;;;0.35;0.35;;;18.50;99.90;;;;;;4401300;32;20073;-76
2023/08/07 11:23:55;;;;;;;1.10;0.30;;;18.60;99.90;;;;;;4388469;32;20581;-77
2023/08/07 11:26:21;;;;;;;0.28;0.28;;;18.70;99.90;;;;;;4387963;32;20082;-76
2023/08/07 11:28:47;;;;;;;0.22;0.22;;;18.80;99.90;;;;;;4386198;32;20063;-77
2023/08/07 11:31:13;;;;;;;0.30;0.30;;;19.00;99.90;;;;;;4385977;32;20122;-76
2023/08/07 11:33:40;;;;;;;0.20;0.20;;;18.90;99.90;;;;;;4398596;32;20070;-76
2023/08/07 11:36:14;;;;;;;0.35;0.35;;;18.70;99.90;;;;;;4400128;32;20074;-76
2023/08/07 11:38:44;;;;;;;3.28;1.25;;;18.50;99.90;;;;;;4400370;32;20066;-76
2023/08/07 11:41:12;;;;;;;0.35;0.35;;;18.40;99.90;;;;;;4401698;32;20062;-76
2023/08/07 11:43:38;;;;;;;0.30;0.30;;;18.30;99.90;;;;;;4400643;32;20513;-76
2023/08/07 11:46:05;;;;;;;0.30;0.30;;;18.50;99.90;;;;;;4400143;32;20073;-75
2023/08/07 11:48:33;;;;;;;0.30;0.30;;;18.60;99.90;;;;;;4398172;32;92303;-75
2023/08/07 11:50:59;;;;;;;0.25;0.25;;;18.70;99.90;;;;;;4400034;32;20474;-75
2023/08/07 11:53:27;;;;;;;0.30;0.30;;;18.90;99.90;;;;;;4399389;32;20570;-75
2023/08/07 11:56:02;;;;;;;1.37;0.57;;;19.30;99.90;;;;;;4400184;32;20095;-76
2023/08/07 11:58:34;;;;;;;0.25;0.25;;;19.80;99.90;;;;;;4401487;32;20062;-76
2023/08/07 12:01:05;;;;;;;0.98;0.55;;;19.70;99.90;;;;;;4399313;32;20137;-75
2023/08/07 12:03:36;;;;;;;0.37;0.32;;;19.40;99.90;;;;;;4389114;32;20058;-75
2023/08/07 12:06:03;;;;;;;0.35;0.35;;;19.30;99.90;;;;;;4387039;32;20450;-76
2023/08/07 12:08:34;;;;;;;0.30;0.30;;;19.50;99.90;;;;;;4399676;32;20070;-76
2023/08/07 12:11:04;;;;;;;3.20;0.30;;;20.00;99.90;;;;;;4397793;32;20074;-76
2023/08/07 12:13:30;;;;;;;0.10;0.10;;;20.50;99.90;;;;;;4399375;32;20066;-76
2023/08/07 12:15:57;;;;;;;0.30;0.30;;;20.90;99.90;;;;;;4399537;32;20083;-77
2023/08/07 12:18:24;;;;;;;0.20;0.20;;;21.30;99.90;;;;;;4390623;32;20087;-78
2023/08/07 12:20:51;;;;;;;0.37;0.37;;;21.50;99.90;;;;;;4384464;32;20067;-76
2023/08/07 12:23:17;;;;;;;0.00;0.00;;;21.70;99.90;;;;;;4388039;32;20519;-76
2023/08/07 12:25:43;;;;;;;0.20;0.20;;;21.80;99.90;;;;;;4385492;32;20122;-76
2023/08/07 12:28:08;;;;;;;0.20;0.20;;;21.70;99.90;;;;;;4392103;32;20078;-76
2023/08/07 12:30:35;;;;;;;0.52;0.50;;;21.50;99.90;;;;;;4398412;32;20087;-75
2023/08/07 12:33:00;;;;;;;0.20;0.20;;;21.50;99.90;;;;;;4399130;32;20425;-76
2023/08/07 12:35:26;;;;;;;0.20;0.20;;;21.10;99.90;;;;;;4400721;32;20078;-76
2023/08/07 12:37:51;;;;;;;0.20;0.20;;;20.90;99.90;;;;;;4400196;32;20070;-76
2023/08/07 12:40:20;;;;;;;0.22;0.22;;;20.50;99.90;;;;;;4398930;32;20079;-76
2023/08/07 12:42:46;;;;;;;0.30;0.30;;;20.50;99.90;;;;;;4399603;32;20078;-76
2023/08/07 12:45:11;;;;;;;0.65;0.50;;;20.70;99.90;;;;;;4398770;32;20070;-77